Almont, Michigan
Current Conditions -  °F | °C
As of 5:54 AM on Friday 19 Dec 2014 (Local Time) from KD95 Reporting Station
Overcast Overcast  
Wind Chill: 25°   Ceiling: 1600
Heat Index: 25°   Visibility: 10mi
Dew Point: 22°   Wind: 3mph
Humidity: 86%   Direction: 300°WNW
Pressure: 30.23"   Gusts: NA
Location:  42.92°N, 83.04°W
Report Text: KD95 191054Z AUTO 30003KT 10SM OVC016 M04/M06 A3023 RMK AO2 T10381058
Loading
Personal Weather Stations






























Interactive Weather Map New forecast layout! Learn more

10-Day Weather Forecast

Advertisements
Track Severe Weather on mobile